Terminal Aerodrome Forecast
Issued by NWS

Home | Current Version | Previous Version | Text Only | Print | Product List | Glossary On
Versions: 1 2 3 4 5 6 7 8 9 10 11 12 13
146
FTPA31 PHFO 112328
TAFHLI
TAF
PHLI 112328Z 1200/1224 06012KT P6SM FEW025 BKN040
     FM120400 06009KT P6SM VCSH SCT025 BKN040
     FM122000 10009KT P6SM FEW025 SCT040=

USA.gov is the U.S. government's official web portal to all federal, state and local government web resources and services.